My webcam more information My webcam


Thunder radar more information blitzortung!


Rain radar more information rain snow radar


Visit our other weather sites:

Template documentation
and downloads

And another site



Nearby METAR Reports

   
KAVP - Albrightsville, PA
Updated: Jul 16 2018 4:54 pm
Clear  
Clear  
   Wind: SSW 9.2 mph
Wind: SSW 9.2 mph
Temperature: 89.6°F
Heat Index: 95°F
Dew Point: 69.8°F
Humidity: 52%
Barometer: 29.92 inHg
Clouds: Clear
Visibility: 9 mi
Cloud details: Clear
KAVP 162054Z 20008KT 9SM CLR 32/21 A2992 RMK AO2 SLP120 T03170206 56017
KIWA - Apache Junction, AZ
Updated: Jul 16 2018 4:55 pm
Mostly Cloudy  
Mostly Cloudy  
   Wind: NNW 8.1 mph
Wind: NNW 8.1 mph
Temperature: 100.4°F
Dew Point: 64.4°F
Humidity: 31%
Barometer: 29.89 inHg
Clouds: Mostly Cloudy
Visibility: 45 mi
Cloud details: Partly Cloudy 3048 m,
Mostly Cloudy 4572 m
KIWA 162055Z 33007KT 45SM SCT100 BKN150 38/18 A2989 RMK VCPO
KPKB - Blue Rock, OH
Updated: Jul 16 2018 4:53 pm
Partly Cloudy  
Partly Cloudy  
   Wind: SSW 6.9 mph
Wind: SSW 6.9 mph
Barometer: 29.98 inHg
Clouds: Partly Cloudy
Visibility: 10 mi
Cloud details: Partly Cloudy 2591 m
KPKB 162053Z 200006KT 10SM SCT085 A2998
KHVN - Branford, CT
Updated: Jul 16 2018 4:53 pm
Partly Cloudy  
Partly Cloudy  
   Wind: SSE 8.1 mph
Wind: SSE 8.1 mph
Temperature: 87.8°F
Heat Index: 96.8°F
Dew Point: 73.4°F
Humidity: 62%
Barometer: 29.93 inHg
Clouds: Partly Cloudy
Visibility: 10 mi
Cloud details: Partly Cloudy 1219 m
KHVN 162053Z 16007KT 10SM SCT040 31/23 A2993 RMK AO2 SLP134 T03060228 56009
KPHX - Carefree, AZ
Updated: Jul 16 2018 4:51 pm
Mostly Cloudy  
Mostly Cloudy  
   Wind: NW 4.6 mph<br />Gust to 4.6 mph
Wind: NW 4.6 mph
Gust to 4.6 mph
Temperature: 100.4°F
Dew Point: 64.4°F
Humidity: 31%
Barometer: 29.84 inHg
Clouds: Mostly Cloudy
Visibility: 10 mi
Cloud details: Few Clouds 2743 m,
Partly Cloudy 4877 m,
Mostly Cloudy 5791 m,
Mostly Cloudy 7620 m
KPHX 162051Z 31004G16KT 10SM FEW090 SCT160 BKN190 BKN250 38/18 A2984 RMK AO2 SLP082 CB DSNT E T03780178 58023
 

Script developed by  Saratoga-weather.org Adapted for the template by  Weerstation Leuven

You find our weather info also at:

WeatherCloud

Weather Underground

Citizen Weather Observer Program (CWOP)

HAMweather, WeatherForYou, PWS Weather

Anything Weather